Time;durP1;ratioP1;P1;durP2;ratioP2;P2;SDS_P1;SDS_P2;PMS_P1;PMS_P2;Temp;Humidity;BMP_temperature;BMP_pressure;BME280_temperature;BME280_humidity;BME280_pressure;Samples;Min_cycle;Max_cycle;Signal;HPM_P1;HPM_P2
2022/01/10 00:00:16;;;;;;;2.30;1.20;;;;;;;;;;20920159;28;20055;-56
2022/01/10 00:10:18;;;;;;;2.28;0.80;;;;;;;;;;20919339;28;20120;-60
2022/01/10 00:20:20;;;;;;;0.70;0.50;;;;;;;;;;20918310;28;20420;-57
2022/01/10 00:30:22;;;;;;;1.55;0.70;;;;;;;;;;20917533;28;20409;-61
2022/01/10 00:40:24;;;;;;;1.30;0.70;;;;;;;;;;20916947;28;20405;-60
2022/01/10 00:50:27;;;;;;;1.42;0.70;;;;;;;;;;20914709;28;20049;-63
2022/01/10 01:00:29;;;;;;;1.55;0.80;;;;;;;;;;20916135;28;20134;-57
2022/01/10 01:30:42;;;;;;;2.65;1.52;;;;;;;;;;20913542;28;20045;-54
2022/01/10 01:40:55;;;;;;;3.47;2.20;;;;;;;;;;20914074;28;20059;-58
2022/01/10 01:50:57;;;;;;;3.88;2.20;;;;;;;;;;20913840;28;20049;-55
2022/01/10 02:01:00;;;;;;;4.75;1.90;;;;;;;;;;20912556;28;20056;-54
2022/01/10 02:11:03;;;;;;;4.22;2.15;;;;;;;;;;20925065;28;20049;-55
2022/01/10 02:21:09;;;;;;;2.73;1.20;;;;;;;;;;20926961;28;20053;-53
2022/01/10 02:31:12;;;;;;;1.58;0.80;;;;;;;;;;20926926;28;20460;-54
2022/01/10 02:41:22;;;;;;;1.10;0.70;;;;;;;;;;20926284;28;20052;-55
2022/01/10 02:51:28;;;;;;;2.72;0.90;;;;;;;;;;20926222;28;20041;-55
2022/01/10 03:01:33;;;;;;;1.27;0.70;;;;;;;;;;20924628;28;20091;-56
2022/01/10 03:11:40;;;;;;;2.38;1.20;;;;;;;;;;20923074;28;20049;-53
2022/01/10 03:21:53;;;;;;;3.75;2.13;;;;;;;;;;20921921;28;20088;-54
2022/01/10 03:32:01;;;;;;;2.78;1.60;;;;;;;;;;20921473;28;20049;-57
2022/01/10 03:42:06;;;;;;;6.45;2.60;;;;;;;;;;20921037;28;20053;-57
2022/01/10 03:52:11;;;;;;;5.55;2.90;;;;;;;;;;20919884;28;20089;-55
2022/01/10 04:02:15;;;;;;;5.20;3.22;;;;;;;;;;20918173;28;20049;-56
2022/01/10 04:12:18;;;;;;;3.55;2.33;;;;;;;;;;20918883;28;20053;-55
2022/01/10 04:22:21;;;;;;;3.95;2.65;;;;;;;;;;20918282;28;20409;-54
2022/01/10 04:32:24;;;;;;;3.65;2.10;;;;;;;;;;20916486;28;20052;-55
2022/01/10 04:42:27;;;;;;;4.68;2.80;;;;;;;;;;20916366;28;20146;-55
2022/01/10 04:52:33;;;;;;;4.05;2.55;;;;;;;;;;20915486;28;20049;-54
2022/01/10 05:02:36;;;;;;;5.38;3.58;;;;;;;;;;20914501;28;20070;-59
2022/01/10 05:12:38;;;;;;;4.53;3.40;;;;;;;;;;20914259;28;20327;-60
2022/01/10 05:22:41;;;;;;;5.72;2.80;;;;;;;;;;20913555;28;20049;-58
2022/01/10 05:32:43;;;;;;;4.95;2.70;;;;;;;;;;20913275;28;20052;-59
2022/01/10 05:42:45;;;;;;;4.45;2.85;;;;;;;;;;20921561;28;20052;-55
2022/01/10 05:52:47;;;;;;;3.25;2.13;;;;;;;;;;20929381;28;20048;-62
2022/01/10 06:02:50;;;;;;;3.03;2.10;;;;;;;;;;20929446;28;20119;-62
2022/01/10 06:12:52;;;;;;;3.25;2.00;;;;;;;;;;20927468;28;20076;-58
2022/01/10 06:22:55;;;;;;;5.50;3.55;;;;;;;;;;20928274;28;20049;-58
2022/01/10 06:32:57;;;;;;;5.07;3.53;;;;;;;;;;20926341;28;20051;-61
2022/01/10 06:43:00;;;;;;;39.28;26.45;;;;;;;;;;20923707;28;20076;-59
2022/01/10 06:53:09;;;;;;;7.25;3.92;;;;;;;;;;20923806;28;20053;-61
2022/01/10 07:03:31;;;;;;;3.67;2.60;;;;;;;;;;20923207;28;20044;-58
2022/01/10 07:13:40;;;;;;;4.35;3.10;;;;;;;;;;20922833;28;20059;-61
2022/01/10 07:23:48;;;;;;;5.53;2.97;;;;;;;;;;20922517;28;20048;-61
2022/01/10 07:33:54;;;;;;;6.95;4.57;;;;;;;;;;20921062;28;20378;-58
2022/01/10 07:44:02;;;;;;;11.27;4.57;;;;;;;;;;20920190;28;20049;-60
2022/01/10 07:54:09;;;;;;;6.22;4.53;;;;;;;;;;20920192;28;20460;-60
2022/01/10 08:04:14;;;;;;;11.30;4.87;;;;;;;;;;20917973;28;20512;-57
2022/01/10 08:14:18;;;;;;;7.67;3.90;;;;;;;;;;20918397;28;20055;-58
2022/01/10 08:24:22;;;;;;;6.90;3.55;;;;;;;;;;20917566;28;20114;-56
2022/01/10 08:34:27;;;;;;;5.65;3.03;;;;;;;;;;20916775;28;20048;-58
2022/01/10 08:44:31;;;;;;;7.63;4.50;;;;;;;;;;20916209;28;20063;-54
2022/01/10 08:54:35;;;;;;;7.93;5.05;;;;;;;;;;20915855;28;20473;-59
2022/01/10 09:04:38;;;;;;;9.63;4.75;;;;;;;;;;20914635;28;20056;-59
2022/01/10 09:14:42;;;;;;;7.25;4.57;;;;;;;;;;20914599;28;20045;-55
2022/01/10 09:24:46;;;;;;;7.97;4.93;;;;;;;;;;20912744;28;20052;-58
2022/01/10 09:34:49;;;;;;;9.35;6.13;;;;;;;;;;20913308;28;20053;-60
2022/01/10 09:44:52;;;;;;;11.23;5.90;;;;;;;;;;20912444;28;20409;-55
2022/01/10 09:54:54;;;;;;;10.75;5.05;;;;;;;;;;20911375;28;20056;-55
2022/01/10 10:04:57;;;;;;;10.88;4.90;;;;;;;;;;20911578;28;20053;-55
2022/01/10 10:15:00;;;;;;;11.82;4.50;;;;;;;;;;20911297;28;20049;-55
2022/01/10 10:25:13;;;;;;;1.85;1.15;;;;;;;;;;20912754;28;20076;-55
2022/01/10 10:35:17;;;;;;;3.63;1.98;;;;;;;;;;20925460;28;20045;-54
2022/01/10 10:45:20;;;;;;;3.13;0.80;;;;;;;;;;20925441;28;20126;-58
2022/01/10 10:55:24;;;;;;;2.17;1.10;;;;;;;;;;20924480;28;20387;-56
2022/01/10 11:05:27;;;;;;;1.83;0.80;;;;;;;;;;20915972;28;20045;-59
2022/01/10 11:15:29;;;;;;;3.70;1.05;;;;;;;;;;20910113;28;20564;-53
2022/01/10 11:25:33;;;;;;;1.90;1.00;;;;;;;;;;20912576;28;20464;-56
2022/01/10 11:35:38;;;;;;;10.30;4.03;;;;;;;;;;20838736;28;20069;-60
2022/01/10 11:45:43;;;;;;;2.95;1.70;;;;;;;;;;20837049;28;20053;-55
2022/01/10 11:55:52;;;;;;;5.38;2.97;;;;;;;;;;20835919;28;20054;-57
2022/01/10 12:05:55;;;;;;;3.25;1.73;;;;;;;;;;20835610;28;20049;-58
2022/01/10 12:15:59;;;;;;;5.88;2.88;;;;;;;;;;20834916;28;20179;-54
2022/01/10 12:26:01;;;;;;;4.05;1.00;;;;;;;;;;20834633;28;20085;-54
2022/01/10 12:36:05;;;;;;;3.63;2.05;;;;;;;;;;20833727;28;20422;-53
2022/01/10 12:46:10;;;;;;;5.88;2.50;;;;;;;;;;20831598;28;20058;-56
2022/01/10 12:56:14;;;;;;;1.70;1.10;;;;;;;;;;20832030;28;20068;-63
2022/01/10 13:06:17;;;;;;;2.05;1.02;;;;;;;;;;20904161;28;20399;-57
2022/01/10 13:16:23;;;;;;;2.20;1.02;;;;;;;;;;20912001;28;20053;-65
2022/01/10 13:26:28;;;;;;;3.72;2.30;;;;;;;;;;20909710;28;20063;-62
2022/01/10 13:36:43;;;;;;;5.95;3.08;;;;;;;;;;20910685;28;20049;-60
2022/01/10 13:46:46;;;;;;;4.05;2.30;;;;;;;;;;20857855;28;20136;-53
2022/01/10 13:56:49;;;;;;;4.72;2.83;;;;;;;;;;20828487;28;20137;-52
2022/01/10 14:06:51;;;;;;;2.35;1.38;;;;;;;;;;20854494;28;20049;-59
2022/01/10 14:16:55;;;;;;;3.25;1.50;;;;;;;;;;20846311;28;20049;-52
2022/01/10 14:26:57;;;;;;;2.13;1.50;;;;;;;;;;20843180;28;20140;-56
2022/01/10 14:36:59;;;;;;;6.50;1.75;;;;;;;;;;20842900;28;20083;-53
2022/01/10 14:47:01;;;;;;;2.85;1.20;;;;;;;;;;20841187;28;20072;-54
2022/01/10 14:57:04;;;;;;;2.78;1.27;;;;;;;;;;20840777;28;20081;-54
2022/01/10 15:07:07;;;;;;;2.15;1.00;;;;;;;;;;20839582;28;20409;-53
2022/01/10 15:17:12;;;;;;;1.85;1.00;;;;;;;;;;20838984;28;20046;-53
2022/01/10 15:27:15;;;;;;;1.83;1.00;;;;;;;;;;20838836;28;20057;-53
2022/01/10 15:37:17;;;;;;;2.45;0.82;;;;;;;;;;20837448;28;20045;-55
2022/01/10 15:47:21;;;;;;;1.58;0.80;;;;;;;;;;20837193;28;20548;-60
2022/01/10 15:57:24;;;;;;;1.73;0.82;;;;;;;;;;20835875;28;20050;-60
2022/01/10 16:07:26;;;;;;;2.10;0.70;;;;;;;;;;20833494;28;20053;-71
2022/01/10 16:17:29;;;;;;;2.70;1.08;;;;;;;;;;20833889;28;20052;-65
2022/01/10 16:27:31;;;;;;;2.45;0.95;;;;;;;;;;20833340;28;20076;-58
2022/01/10 16:37:34;;;;;;;3.05;1.02;;;;;;;;;;20831993;28;20431;-57
2022/01/10 16:47:37;;;;;;;2.78;1.08;;;;;;;;;;20831866;28;20445;-56
2022/01/10 16:57:39;;;;;;;1.55;1.17;;;;;;;;;;20831113;28;20061;-60
2022/01/10 17:07:42;;;;;;;2.58;1.00;;;;;;;;;;20830451;28;20053;-55
2022/01/10 17:17:46;;;;;;;1.40;0.90;;;;;;;;;;20829093;28;20057;-57
2022/01/10 17:27:49;;;;;;;2.35;1.40;;;;;;;;;;20829575;28;20075;-53
2022/01/10 17:37:52;;;;;;;1.77;1.00;;;;;;;;;;20827222;28;20085;-57
2022/01/10 17:47:54;;;;;;;2.45;0.90;;;;;;;;;;20828531;28;20060;-55
2022/01/10 17:57:57;;;;;;;1.10;0.63;;;;;;;;;;20829483;28;20111;-57
2022/01/10 18:07:59;;;;;;;6.72;2.50;;;;;;;;;;20828943;28;20059;-55
2022/01/10 18:18:02;;;;;;;2.70;1.08;;;;;;;;;;20828650;28;20064;-56
2022/01/10 18:28:04;;;;;;;1.38;1.00;;;;;;;;;;20828389;28;20133;-57
2022/01/10 18:38:08;;;;;;;2.50;1.33;;;;;;;;;;20827213;28;20050;-57
2022/01/10 18:48:10;;;;;;;2.00;0.80;;;;;;;;;;20832380;28;20054;-55
2022/01/10 18:58:17;;;;;;;2.05;0.90;;;;;;;;;;20841366;28;20135;-55
2022/01/10 19:08:20;;;;;;;1.48;0.90;;;;;;;;;;20840663;28;20143;-56
2022/01/10 19:18:22;;;;;;;1.52;1.00;;;;;;;;;;20840352;28;20100;-56
2022/01/10 19:28:25;;;;;;;1.92;1.00;;;;;;;;;;20839584;28;20481;-57
2022/01/10 19:38:27;;;;;;;2.05;1.30;;;;;;;;;;20838189;28;20045;-57
2022/01/10 19:48:29;;;;;;;3.15;1.40;;;;;;;;;;20838351;28;20049;-56
2022/01/10 19:58:32;;;;;;;2.85;1.40;;;;;;;;;;20835948;28;20053;-56
2022/01/10 20:08:34;;;;;;;3.30;2.00;;;;;;;;;;20836626;28;20049;-56
2022/01/10 20:18:36;;;;;;;2.08;1.33;;;;;;;;;;20836392;28;20049;-57
2022/01/10 20:28:39;;;;;;;4.10;1.80;;;;;;;;;;20835602;28;20406;-56
2022/01/10 20:38:41;;;;;;;3.33;2.13;;;;;;;;;;20834058;28;20053;-57
2022/01/10 20:48:46;;;;;;;2.92;1.50;;;;;;;;;;20834367;28;20067;-56
2022/01/10 20:58:48;;;;;;;2.90;1.55;;;;;;;;;;20832428;28;20053;-56
2022/01/10 21:08:51;;;;;;;2.80;1.30;;;;;;;;;;20832248;28;20141;-56
2022/01/10 21:18:54;;;;;;;2.88;1.40;;;;;;;;;;20831201;28;20053;-60
2022/01/10 21:28:56;;;;;;;2.42;1.17;;;;;;;;;;20831482;28;20052;-59
2022/01/10 21:38:59;;;;;;;1.50;1.00;;;;;;;;;;20830773;28;20045;-60
2022/01/10 21:49:05;;;;;;;2.40;1.10;;;;;;;;;;20830731;28;20042;-55
2022/01/10 21:59:08;;;;;;;1.38;0.88;;;;;;;;;;20829878;28;20058;-69
2022/01/10 22:09:10;;;;;;;1.00;0.70;;;;;;;;;;20829547;28;20395;-58
2022/01/10 22:19:13;;;;;;;4.85;3.00;;;;;;;;;;20829834;28;20486;-60
2022/01/10 22:29:16;;;;;;;4.72;2.00;;;;;;;;;;20843867;28;20050;-67
2022/01/10 22:39:18;;;;;;;3.95;2.45;;;;;;;;;;20844425;28;20054;-62
2022/01/10 22:49:21;;;;;;;2.78;1.27;;;;;;;;;;20843391;28;20089;-67
2022/01/10 22:59:23;;;;;;;2.97;1.67;;;;;;;;;;20843596;28;20049;-67
2022/01/10 23:09:26;;;;;;;2.20;1.20;;;;;;;;;;20841589;28;20046;-64
2022/01/10 23:19:29;;;;;;;3.13;2.30;;;;;;;;;;20840759;28;20076;-68
2022/01/10 23:29:31;;;;;;;3.55;2.08;;;;;;;;;;20840142;28;20057;-64
2022/01/10 23:39:33;;;;;;;4.13;2.50;;;;;;;;;;20839424;28;20402;-62
2022/01/10 23:49:35;;;;;;;3.78;2.78;;;;;;;;;;20838712;28;20413;-66
2022/01/10 23:59:37;;;;;;;3.35;2.45;;;;;;;;;;20838933;28;20463;-59
